Wetterdaten: Woche 21.09.09 - 27.09.09 (KW39)
Datum Zeit Temperatur Luftfeuchte Luftdruck Niederschlag Windrichtung Wind
21.09.2009 00:00 14,1 C 96 % 1018,8 hPa 0,0 l/m N 2,3 km/h (1 Bft)
21.09.2009 01:00 13,7 C 95 % 1018,9 hPa 0,0 l/m N 0,3 km/h (0 Bft)
21.09.2009 02:00 13,1 C 95 % 1019,0 hPa 0,0 l/m N-NW 2,7 km/h (1 Bft)
21.09.2009 03:00 12,8 C 96 % 1019,1 hPa 0,0 l/m N-NW 3,1 km/h (1 Bft)
21.09.2009 04:00 13,1 C 97 % 1019,1 hPa 0,0 l/m N 0,9 km/h (0 Bft)
21.09.2009 05:00 13,5 C 98 % 1019,0 hPa 0,0 l/m N-NW 3,1 km/h (1 Bft)
21.09.2009 06:00 13,7 C 97 % 1019,1 hPa 0,0 l/m N-NW 7,9 km/h (2 Bft)
21.09.2009 07:00 13,4 C 97 % 1019,7 hPa 0,0 l/m N 7,6 km/h (2 Bft)
21.09.2009 08:00 13,6 C 97 % 1020,4 hPa 0,0 l/m N 5,7 km/h (1 Bft)
21.09.2009 09:00 15,4 C 94 % 1020,6 hPa 0,0 l/m NO 6,7 km/h (2 Bft)
21.09.2009 10:00 17,7 C 85 % 1020,7 hPa 0,0 l/m O-NO 9,9 km/h (2 Bft)
21.09.2009 11:00 19,6 C 76 % 1020,7 hPa 0,0 l/m O-NO 10,4 km/h (2 Bft)
21.09.2009 12:00 20,8 C 73 % 1020,7 hPa 0,0 l/m NO 14,2 km/h (3 Bft)
21.09.2009 13:00 21,5 C 68 % 1020,3 hPa 0,0 l/m NO 16,9 km/h (3 Bft)
21.09.2009 14:00 22,2 C 63 % 1019,8 hPa 0,0 l/m O-NO 16,4 km/h (3 Bft)
21.09.2009 15:00 22,4 C 62 % 1019,7 hPa 0,0 l/m NO 14,2 km/h (3 Bft)
21.09.2009 16:00 22,7 C 61 % 1019,6 hPa 0,0 l/m O-NO 16,8 km/h (3 Bft)
21.09.2009 17:00 22,2 C 63 % 1019,5 hPa 0,0 l/m O-NO 13,4 km/h (3 Bft)
21.09.2009 18:00 21,2 C 68 % 1019,7 hPa 0,0 l/m O-NO 10,1 km/h (2 Bft)
21.09.2009 19:00 19,3 C 78 % 1020,4 hPa 0,0 l/m N-NO 8,6 km/h (2 Bft)
21.09.2009 20:00 17,9 C 86 % 1021,2 hPa 0,0 l/m N 7,9 km/h (2 Bft)
21.09.2009 21:00 16,5 C 91 % 1021,4 hPa 0,0 l/m N-NO 5,9 km/h (2 Bft)
21.09.2009 22:00 15,6 C 94 % 1021,7 hPa 0,0 l/m N 6,7 km/h (2 Bft)
21.09.2009 23:00 15,1 C 95 % 1021,7 hPa 0,0 l/m N 5,5 km/h (1 Bft)
22.09.2009 00:00 14,9 C 96 % 1021,8 hPa 0,0 l/m N-NW 5,5 km/h (1 Bft)
22.09.2009 01:00 14,5 C 97 % 1022,1 hPa 0,0 l/m N-NW 6,9 km/h (2 Bft)
22.09.2009 02:00 14,0 C 97 % 1022,1 hPa 0,0 l/m N-NW 4,5 km/h (1 Bft)
22.09.2009 03:00 13,5 C 97 % 1022,1 hPa 0,0 l/m N-NW 2,9 km/h (1 Bft)
22.09.2009 04:00 12,9 C 98 % 1022,3 hPa 0,0 l/m N-NW 3,9 km/h (1 Bft)
22.09.2009 05:00 12,8 C 98 % 1022,5 hPa 0,0 l/m N-NW 3,6 km/h (1 Bft)
22.09.2009 06:00 12,6 C 98 % 1022,6 hPa 0,2 l/m N-NW 3,2 km/h (1 Bft)
22.09.2009 07:00 12,8 C 99 % 1022,8 hPa 0,0 l/m N-NO 4,1 km/h (1 Bft)
22.09.2009 08:00 13,2 C 99 % 1023,2 hPa 0,0 l/m N 6,0 km/h (2 Bft)
22.09.2009 09:00 13,4 C 99 % 1023,6 hPa 0,0 l/m NO 3,7 km/h (1 Bft)
22.09.2009 10:00 13,9 C 99 % 1023,9 hPa 0,0 l/m O-NO 3,2 km/h (1 Bft)
22.09.2009 11:00 15,1 C 97 % 1024,1 hPa 0,0 l/m O 4,1 km/h (1 Bft)
22.09.2009 12:00 16,6 C 92 % 1024,1 hPa 0,0 l/m SO 4,4 km/h (1 Bft)
22.09.2009 13:00 19,1 C 83 % 1023,6 hPa 0,0 l/m O-SO 4,7 km/h (1 Bft)
22.09.2009 14:00 21,3 C 70 % 1023,0 hPa 0,0 l/m NO 10,3 km/h (2 Bft)
22.09.2009 15:00 22,3 C 62 % 1022,6 hPa 0,0 l/m O-SO 11,7 km/h (2 Bft)
22.09.2009 16:00 22,6 C 59 % 1022,5 hPa 0,0 l/m O-SO 9,8 km/h (2 Bft)
22.09.2009 17:00 22,2 C 60 % 1022,5 hPa 0,0 l/m O-NO 8,2 km/h (2 Bft)
22.09.2009 18:00 20,7 C 69 % 1022,5 hPa 0,0 l/m O-NO 4,5 km/h (1 Bft)
22.09.2009 19:00 17,5 C 84 % 1022,8 hPa 0,0 l/m N 1,9 km/h (1 Bft)
22.09.2009 20:00 15,8 C 89 % 1023,6 hPa 0,0 l/m N 1,3 km/h (1 Bft)
22.09.2009 21:00 14,6 C 92 % 1023,9 hPa 0,0 l/m N 0,0 km/h (0 Bft)
22.09.2009 22:00 13,8 C 94 % 1024,2 hPa 0,0 l/m N 0,1 km/h (0 Bft)
22.09.2009 23:00 13,2 C 95 % 1024,2 hPa 0,0 l/m N 0,5 km/h (0 Bft)
23.09.2009 00:00 12,7 C 95 % 1024,4 hPa 0,0 l/m N 0,1 km/h (0 Bft)
23.09.2009 01:00 12,0 C 96 % 1024,8 hPa 0,0 l/m N 0,0 km/h (0 Bft)
23.09.2009 02:00 11,4 C 97 % 1024,7 hPa 0,0 l/m N 0,0 km/h (0 Bft)
23.09.2009 03:00 11,0 C 97 % 1024,7 hPa 0,0 l/m N 0,0 km/h (0 Bft)
23.09.2009 04:00 10,4 C 97 % 1024,6 hPa 0,0 l/m N 0,1 km/h (0 Bft)
23.09.2009 05:00 10,6 C 98 % 1024,6 hPa 0,0 l/m N 0,0 km/h (0 Bft)
23.09.2009 06:00 10,6 C 98 % 1024,5 hPa 0,0 l/m N 0,1 km/h (0 Bft)
23.09.2009 07:00 10,9 C 99 % 1024,8 hPa 0,0 l/m N 1,2 km/h (1 Bft)
23.09.2009 08:00 11,4 C 99 % 1025,1 hPa 0,0 l/m N 0,1 km/h (0 Bft)
23.09.2009 09:00 12,6 C 99 % 1025,5 hPa 0,0 l/m N 1,3 km/h (1 Bft)
23.09.2009 10:00 13,9 C 99 % 1025,8 hPa 0,0 l/m S 4,7 km/h (1 Bft)
23.09.2009 11:00 15,0 C 98 % 1025,8 hPa 0,0 l/m S 5,7 km/h (1 Bft)
23.09.2009 12:00 17,2 C 90 % 1025,5 hPa 0,0 l/m S-SW 6,1 km/h (2 Bft)
23.09.2009 13:00 19,5 C 81 % 1025,0 hPa 0,0 l/m S-SO 5,6 km/h (1 Bft)
23.09.2009 14:00 21,3 C 72 % 1024,3 hPa 0,0 l/m S-SO 6,9 km/h (2 Bft)
23.09.2009 15:00 22,3 C 61 % 1023,5 hPa 0,0 l/m S 5,6 km/h (1 Bft)
23.09.2009 16:00 22,5 C 58 % 1022,8 hPa 0,0 l/m O-SO 5,7 km/h (1 Bft)
23.09.2009 17:00 22,1 C 58 % 1022,4 hPa 0,0 l/m O-SO 4,3 km/h (1 Bft)
23.09.2009 18:00 19,7 C 76 % 1022,1 hPa 0,0 l/m N 1,5 km/h (1 Bft)
23.09.2009 19:00 17,2 C 84 % 1022,1 hPa 0,0 l/m N-NO 1,3 km/h (1 Bft)
23.09.2009 20:00 15,6 C 89 % 1022,5 hPa 0,0 l/m N-NO 2,5 km/h (1 Bft)
23.09.2009 21:00 14,9 C 91 % 1022,9 hPa 0,0 l/m N 0,0 km/h (0 Bft)
23.09.2009 22:00 14,0 C 94 % 1022,9 hPa 0,0 l/m N-NO 0,8 km/h (0 Bft)
23.09.2009 23:00 13,8 C 96 % 1022,7 hPa 0,0 l/m N 1,3 km/h (1 Bft)
24.09.2009 00:00 13,1 C 96 % 1022,7 hPa 0,0 l/m N 0,0 km/h (0 Bft)
24.09.2009 01:00 12,4 C 96 % 1022,5 hPa 0,0 l/m N 0,4 km/h (0 Bft)
24.09.2009 02:00 12,1 C 97 % 1022,1 hPa 0,0 l/m N 0,7 km/h (0 Bft)
24.09.2009 03:00 12,2 C 97 % 1021,7 hPa 0,0 l/m N-NW 6,6 km/h (2 Bft)
24.09.2009 04:00 12,2 C 95 % 1021,5 hPa 0,0 l/m N-NW 4,1 km/h (1 Bft)
24.09.2009 05:00 11,1 C 96 % 1021,3 hPa 0,0 l/m N 0,1 km/h (0 Bft)
24.09.2009 06:00 10,7 C 96 % 1021,1 hPa 0,0 l/m N 1,5 km/h (1 Bft)
24.09.2009 07:00 10,6 C 96 % 1021,2 hPa 0,2 l/m N 3,7 km/h (1 Bft)
24.09.2009 08:00 11,5 C 95 % 1021,3 hPa 0,0 l/m N 4,0 km/h (1 Bft)
24.09.2009 09:00 13,6 C 88 % 1021,4 hPa 0,0 l/m N-NO 6,8 km/h (2 Bft)
24.09.2009 10:00 15,7 C 83 % 1021,3 hPa 0,0 l/m N-NO 6,0 km/h (2 Bft)
24.09.2009 11:00 17,8 C 75 % 1021,2 hPa 0,0 l/m NO 5,2 km/h (1 Bft)
24.09.2009 12:00 20,0 C 67 % 1020,6 hPa 0,0 l/m O-NO 7,5 km/h (2 Bft)
24.09.2009 13:00 21,4 C 63 % 1019,9 hPa 0,0 l/m NO 8,3 km/h (2 Bft)
24.09.2009 14:00 21,9 C 57 % 1019,4 hPa 0,0 l/m O-SO 10,2 km/h (2 Bft)
24.09.2009 15:00 22,3 C 54 % 1019,0 hPa 0,0 l/m O-NO 12,1 km/h (2 Bft)
24.09.2009 16:00 21,7 C 57 % 1018,5 hPa 0,0 l/m NO 12,0 km/h (2 Bft)
24.09.2009 17:00 21,2 C 60 % 1018,5 hPa 0,0 l/m O-NO 14,4 km/h (3 Bft)
24.09.2009 18:00 20,0 C 66 % 1018,7 hPa 0,0 l/m O-NO 8,4 km/h (2 Bft)
24.09.2009 19:00 17,3 C 80 % 1019,1 hPa 0,0 l/m N 2,8 km/h (1 Bft)
24.09.2009 20:00 15,7 C 86 % 1019,7 hPa 0,0 l/m N 5,1 km/h (1 Bft)
24.09.2009 21:00 14,9 C 87 % 1020,2 hPa 0,0 l/m N-NW 6,7 km/h (2 Bft)
24.09.2009 22:00 14,5 C 89 % 1020,7 hPa 0,0 l/m N 4,3 km/h (1 Bft)
24.09.2009 23:00 13,8 C 91 % 1020,9 hPa 0,0 l/m N 5,3 km/h (1 Bft)
25.09.2009 00:00 13,3 C 92 % 1021,0 hPa 0,0 l/m N-NO 6,3 km/h (2 Bft)
25.09.2009 01:00 13,6 C 92 % 1021,2 hPa 0,0 l/m N 7,1 km/h (2 Bft)
25.09.2009 02:00 13,9 C 91 % 1021,2 hPa 0,0 l/m NO 7,8 km/h (2 Bft)
25.09.2009 03:00 13,3 C 92 % 1021,0 hPa 0,0 l/m NO 9,5 km/h (2 Bft)
25.09.2009 04:00 12,6 C 94 % 1020,9 hPa 0,0 l/m N-NO 8,0 km/h (2 Bft)
25.09.2009 05:00 11,9 C 96 % 1020,8 hPa 0,0 l/m N-NO 4,7 km/h (1 Bft)
25.09.2009 06:00 12,0 C 97 % 1020,7 hPa 0,0 l/m N-NO 7,5 km/h (2 Bft)
25.09.2009 07:00 12,4 C 97 % 1020,8 hPa 0,0 l/m NO 10,6 km/h (2 Bft)
25.09.2009 08:00 12,6 C 97 % 1021,0 hPa 0,0 l/m O-NO 10,8 km/h (2 Bft)
25.09.2009 09:00 12,9 C 97 % 1021,5 hPa 0,0 l/m O-NO 14,8 km/h (3 Bft)
25.09.2009 10:00 13,5 C 95 % 1021,8 hPa 0,0 l/m O-NO 12,8 km/h (3 Bft)
25.09.2009 11:00 14,2 C 91 % 1022,0 hPa 0,0 l/m O-NO 13,8 km/h (3 Bft)
25.09.2009 12:00 14,7 C 89 % 1021,9 hPa 0,0 l/m O-NO 13,7 km/h (3 Bft)
25.09.2009 13:00 16,1 C 82 % 1021,5 hPa 0,0 l/m O-NO 15,8 km/h (3 Bft)
25.09.2009 14:00 18,0 C 72 % 1020,8 hPa 0,0 l/m O-NO 16,1 km/h (3 Bft)
25.09.2009 15:00 18,7 C 67 % 1020,4 hPa 0,0 l/m O 17,0 km/h (3 Bft)
25.09.2009 16:00 18,2 C 68 % 1020,4 hPa 0,0 l/m O-NO 16,6 km/h (3 Bft)
25.09.2009 17:00 17,9 C 69 % 1020,6 hPa 0,0 l/m O 12,8 km/h (3 Bft)
25.09.2009 18:00 17,3 C 71 % 1020,8 hPa 0,0 l/m O-NO 11,1 km/h (2 Bft)
25.09.2009 19:00 16,2 C 75 % 1021,2 hPa 0,0 l/m O-NO 5,5 km/h (1 Bft)
25.09.2009 20:00 15,1 C 80 % 1021,6 hPa 0,0 l/m N-NO 3,9 km/h (1 Bft)
25.09.2009 21:00 14,2 C 84 % 1021,9 hPa 0,0 l/m N-NO 6,1 km/h (2 Bft)
25.09.2009 22:00 13,9 C 83 % 1022,2 hPa 0,0 l/m N-NO 3,9 km/h (1 Bft)
25.09.2009 23:00 13,3 C 84 % 1022,2 hPa 0,0 l/m N-NO 3,6 km/h (1 Bft)
26.09.2009 00:00 13,4 C 82 % 1022,2 hPa 0,0 l/m N-NO 7,1 km/h (2 Bft)
26.09.2009 01:00 13,2 C 83 % 1022,1 hPa 0,0 l/m N 6,3 km/h (2 Bft)
26.09.2009 02:00 13,1 C 84 % 1022,0 hPa 0,0 l/m N-NO 6,8 km/h (2 Bft)
26.09.2009 03:00 12,4 C 87 % 1021,8 hPa 0,0 l/m NO 7,2 km/h (2 Bft)
26.09.2009 04:00 11,1 C 91 % 1021,5 hPa 0,0 l/m N 6,7 km/h (2 Bft)
26.09.2009 05:00 10,7 C 93 % 1021,7 hPa 0,0 l/m N 5,3 km/h (1 Bft)
26.09.2009 06:00 11,1 C 92 % 1021,6 hPa 0,0 l/m N-NO 9,8 km/h (2 Bft)
26.09.2009 07:00 11,1 C 92 % 1021,9 hPa 0,0 l/m N 8,7 km/h (2 Bft)
26.09.2009 08:00 11,2 C 91 % 1022,3 hPa 0,0 l/m N 9,3 km/h (2 Bft)
26.09.2009 09:00 11,4 C 91 % 1022,7 hPa 0,0 l/m N-NO 8,4 km/h (2 Bft)
26.09.2009 10:00 13,0 C 86 % 1022,9 hPa 0,0 l/m NO 12,2 km/h (2 Bft)
26.09.2009 11:00 16,0 C 73 % 1022,8 hPa 0,0 l/m N-NO 16,0 km/h (3 Bft)
26.09.2009 12:00 17,6 C 61 % 1022,5 hPa 0,0 l/m NO 20,2 km/h (4 Bft)
26.09.2009 13:00 18,8 C 56 % 1021,9 hPa 0,0 l/m O 20,8 km/h (4 Bft)
26.09.2009 14:00 19,4 C 51 % 1021,6 hPa 0,0 l/m O-SO 20,5 km/h (4 Bft)
26.09.2009 15:00 19,8 C 47 % 1021,4 hPa 0,0 l/m O 19,3 km/h (3 Bft)
26.09.2009 16:00 19,6 C 48 % 1021,2 hPa 0,0 l/m O 16,5 km/h (3 Bft)
26.09.2009 17:00 19,0 C 52 % 1021,4 hPa 0,0 l/m O 14,8 km/h (3 Bft)
26.09.2009 18:00 17,9 C 57 % 1021,6 hPa 0,0 l/m NO 10,7 km/h (2 Bft)
26.09.2009 19:00 15,3 C 70 % 1022,1 hPa 0,0 l/m O 2,9 km/h (1 Bft)
26.09.2009 20:00 12,9 C 81 % 1022,5 hPa 0,0 l/m N-NO 2,7 km/h (1 Bft)
26.09.2009 21:00 12,0 C 84 % 1022,7 hPa 0,0 l/m N 1,2 km/h (1 Bft)
26.09.2009 22:00 11,3 C 87 % 1022,8 hPa 0,0 l/m N 2,5 km/h (1 Bft)
26.09.2009 23:00 10,8 C 90 % 1022,9 hPa 0,0 l/m N-NO 3,9 km/h (1 Bft)
27.09.2009 00:00 10,3 C 91 % 1022,8 hPa 0,0 l/m N 3,3 km/h (1 Bft)
27.09.2009 01:00 9,8 C 92 % 1022,7 hPa 0,0 l/m N 3,6 km/h (1 Bft)
27.09.2009 02:00 9,7 C 92 % 1022,9 hPa 0,0 l/m N-NW 6,2 km/h (2 Bft)
27.09.2009 03:00 9,5 C 91 % 1022,9 hPa 0,0 l/m N-NW 5,7 km/h (1 Bft)
27.09.2009 04:00 9,1 C 92 % 1022,9 hPa 0,0 l/m N-NW 5,1 km/h (1 Bft)
27.09.2009 05:00 8,9 C 93 % 1023,0 hPa 0,0 l/m N-NW 8,0 km/h (2 Bft)
27.09.2009 06:00 8,6 C 93 % 1023,2 hPa 0,0 l/m N-NW 3,3 km/h (1 Bft)
27.09.2009 07:00 8,1 C 95 % 1023,5 hPa 0,0 l/m N 0,5 km/h (0 Bft)
27.09.2009 08:00 9,6 C 93 % 1023,8 hPa 0,0 l/m N 3,9 km/h (1 Bft)
27.09.2009 09:00 10,6 C 89 % 1024,1 hPa 0,0 l/m N-NO 3,5 km/h (1 Bft)
27.09.2009 10:00 12,0 C 86 % 1024,4 hPa 0,0 l/m N-NO 3,7 km/h (1 Bft)
27.09.2009 11:00 13,7 C 84 % 1024,2 hPa 0,0 l/m N-NW 3,9 km/h (1 Bft)
27.09.2009 12:00 16,2 C 78 % 1023,9 hPa 0,0 l/m SO 6,1 km/h (2 Bft)
27.09.2009 13:00 17,6 C 73 % 1023,6 hPa 0,0 l/m O-SO 5,5 km/h (1 Bft)
27.09.2009 14:00 19,0 C 68 % 1023,0 hPa 0,0 l/m W 7,1 km/h (2 Bft)
27.09.2009 15:00 19,6 C 65 % 1022,8 hPa 0,0 l/m N-NO 7,9 km/h (2 Bft)
27.09.2009 16:00 19,9 C 63 % 1022,5 hPa 0,0 l/m N-NO 6,8 km/h (2 Bft)
27.09.2009 17:00 19,4 C 64 % 1022,4 hPa 0,0 l/m N-NO 5,1 km/h (1 Bft)
27.09.2009 18:00 18,3 C 72 % 1022,4 hPa 0,0 l/m NO 3,9 km/h (1 Bft)
27.09.2009 19:00 15,5 C 84 % 1022,8 hPa 0,0 l/m N 1,1 km/h (0 Bft)
27.09.2009 20:00 13,7 C 89 % 1023,2 hPa 0,0 l/m N 0,5 km/h (0 Bft)
27.09.2009 21:00 12,8 C 92 % 1023,4 hPa 0,0 l/m N 0,1 km/h (0 Bft)
27.09.2009 22:00 11,9 C 94 % 1023,8 hPa 0,0 l/m N 0,1 km/h (0 Bft)
27.09.2009 23:00 11,4 C 95 % 1023,9 hPa 0,0 l/m N 0,3 km/h (0 Bft)
Min-Datum _ 27.09.09 26.09.09 24.09.09 - - 21.09.09
_ Min-Zeit 07:20 15:15 16:50 - - 00:20
Minimum _ 7,9 C 45 % 1018,3 hPa - - 0,0 km/h (0 Bft)
Max-Datum _ 21.09.09 25.09.09 23.09.09 22.09.09 - 26.09.09
_ Max-Zeit 15:55 06:50 11:35 06:35 - 14:30
Maximum _ 22,9 C 100 % 1026,0 hPa 0,2 l/m - 25,7 km/h
O-SO (4 Bft)
Durchschnitt _ 15,1 C 84 % 1022,1 hPa #0,4 l/m N 6,4 km/h (2 Bft)